createdAt,value
2019-05-06T00:01:36.375Z,98913.20
2019-05-06T00:06:43.891Z,98906.84
2019-05-06T00:11:48.842Z,98917.45
2019-05-06T00:16:55.101Z,98908.67
2019-05-06T00:22:01.534Z,98911.59
2019-05-06T00:27:14.921Z,98917.15
2019-05-06T00:32:20.221Z,98911.10
2019-05-06T00:37:25.596Z,98915.33
2019-05-06T00:42:39.199Z,98914.80
2019-05-06T00:47:44.551Z,98918.20
2019-05-06T00:52:51.146Z,98917.80
2019-05-06T00:57:57.501Z,98916.79
2019-05-06T01:03:05.370Z,98918.02
2019-05-06T01:08:10.791Z,98914.88
2019-05-06T01:13:41.146Z,98913.91
2019-05-06T01:18:46.592Z,98912.64
2019-05-06T01:23:54.488Z,98919.95
2019-05-06T01:28:59.900Z,98917.18
2019-05-06T01:34:05.306Z,98925.14
2019-05-06T01:39:44.755Z,98924.90
2019-05-06T01:44:50.249Z,98923.78
2019-05-06T01:49:55.666Z,98925.53
2019-05-06T01:55:01.072Z,98931.83
2019-05-06T02:00:08.061Z,98945.30
2019-05-06T02:05:15.298Z,98942.98
2019-05-06T02:10:20.514Z,98944.52
2019-05-06T02:15:26.817Z,98941.63
2019-05-06T02:20:34.021Z,98945.93
2019-05-06T02:25:44.676Z,98945.89
2019-05-06T02:31:07.820Z,98945.99
2019-05-06T02:36:20.683Z,98949.56
2019-05-06T02:41:26.012Z,98947.64
2019-05-06T02:46:33.799Z,98945.87
2019-05-06T02:51:38.562Z,98944.70
2019-05-06T02:56:43.818Z,98952.94
2019-05-06T03:01:49.832Z,98946.33
2019-05-06T03:06:55.305Z,98952.20
2019-05-06T03:12:03.390Z,98950.80
2019-05-06T03:17:07.618Z,98952.44
2019-05-06T03:22:34.880Z,98959.34
2019-05-06T03:27:46.504Z,98949.09
2019-05-06T03:33:27.530Z,98956.87
2019-05-06T03:37:56.363Z,98952.17
2019-05-06T03:43:02.802Z,98958.05
2019-05-06T03:48:13.668Z,98960.14
2019-05-06T03:53:19.282Z,98956.67
2019-05-06T03:58:26.815Z,98959.56
2019-05-06T04:03:43.857Z,98956.87
2019-05-06T04:08:43.465Z,98960.30
2019-05-06T04:13:49.367Z,98965.31
2019-05-06T04:19:12.830Z,98967.12
2019-05-06T04:24:36.127Z,98971.94
2019-05-06T04:29:42.837Z,98967.45
2019-05-06T04:34:48.278Z,98977.16
2019-05-06T04:39:54.077Z,98979.55
2019-05-06T04:44:59.971Z,98985.33
2019-05-06T04:50:07.584Z,98994.03
2019-05-06T04:59:05.814Z,98995.02
2019-05-06T05:04:26.866Z,98993.94
2019-05-06T05:09:18.527Z,99008.07
2019-05-06T05:14:42.316Z,99010.69
2019-05-06T05:19:47.662Z,99010.05
2019-05-06T05:24:52.978Z,99002.83
2019-05-06T05:29:58.326Z,99016.03
2019-05-06T05:35:03.986Z,99019.69
2019-05-06T05:40:09.684Z,99017.42
2019-05-06T05:45:15.284Z,99016.72
2019-05-06T05:50:29.002Z,99016.97
2019-05-06T05:55:35.115Z,99010.59
2019-05-06T06:00:42.577Z,99009.34
2019-05-06T06:05:48.284Z,99015.66
2019-05-06T06:11:15.599Z,99024.72
2019-05-06T06:16:34.954Z,99020.84
2019-05-06T06:21:43.821Z,99015.50
2019-05-06T06:26:49.243Z,99019.06
2019-05-06T06:32:16.921Z,99021.98
2019-05-06T06:37:47.153Z,99020.94
2019-05-06T06:42:56.530Z,99020.94
2019-05-06T06:48:03.070Z,99028.45
2019-05-06T06:53:09.544Z,99024.31
2019-05-06T06:58:29.283Z,99019.13
2019-05-06T07:03:44.225Z,99023.08
2019-05-06T07:08:51.823Z,99021.52
2019-05-06T07:13:57.775Z,99026.03
2019-05-06T07:19:03.385Z,99028.53
2019-05-06T07:24:08.633Z,99026.34
2019-05-06T07:29:21.689Z,99024.55
2019-05-06T07:34:22.892Z,99028.11
2019-05-06T07:39:28.227Z,99029.95
2019-05-06T07:45:07.399Z,99024.23
2019-05-06T07:50:13.296Z,99029.70
2019-05-06T07:55:18.918Z,99032.37
2019-05-06T08:00:25.590Z,99031.09
2019-05-06T08:05:33.278Z,99030.34
2019-05-06T08:10:38.528Z,99020.70
2019-05-06T08:15:43.944Z,99026.02
2019-05-06T08:20:49.335Z,99024.86
2019-05-06T08:26:09.040Z,99027.89
2019-05-06T08:31:02.392Z,99026.93
2019-05-06T08:36:14.531Z,99023.36
2019-05-06T08:41:17.901Z,99004.51
2019-05-06T08:46:23.730Z,98996.49
2019-05-06T08:51:36.065Z,98992.98
2019-05-06T08:56:42.707Z,98987.87
2019-05-06T09:01:49.765Z,98991.06
2019-05-06T09:06:55.143Z,98983.27
2019-05-06T09:12:02.464Z,98983.00
2019-05-06T09:17:07.876Z,98975.74
2019-05-06T09:22:13.220Z,98983.02
2019-05-06T09:27:24.728Z,98989.22
2019-05-06T09:32:38.026Z,98992.90
2019-05-06T09:37:43.230Z,98995.63
2019-05-06T09:42:48.564Z,98999.50
2019-05-06T09:48:09.645Z,98996.42
2019-05-06T09:53:26.372Z,98987.33
2019-05-06T09:58:32.576Z,98988.00
2019-05-06T10:03:38.265Z,98986.81
2019-05-06T10:08:43.510Z,98975.15
2019-05-06T10:13:49.090Z,98974.07
2019-05-06T10:18:54.714Z,98976.86
2019-05-06T10:24:02.198Z,98983.77
2019-05-06T10:29:27.830Z,98975.38
2019-05-06T10:34:33.083Z,98971.82
2019-05-06T10:39:42.876Z,98956.97
2019-05-06T10:44:56.163Z,98965.54
2019-05-06T10:50:02.217Z,98957.41
2019-05-06T10:55:08.551Z,98957.63
2019-05-06T11:00:14.224Z,98955.99
2019-05-06T11:05:20.434Z,98955.44
2019-05-06T11:14:08.558Z,98950.27
2019-05-06T11:19:13.957Z,98953.55
2019-05-06T11:24:19.270Z,98946.81
2019-05-06T11:29:29.419Z,98943.88
2019-05-06T11:34:55.299Z,98932.06
2019-05-06T11:40:00.630Z,98937.26
2019-05-06T11:45:06.954Z,98930.06
2019-05-06T11:50:13.074Z,98924.63
2019-05-06T11:55:28.859Z,98915.25
2019-05-06T12:00:35.983Z,98920.70
2019-05-06T12:05:41.859Z,98923.25
2019-05-06T12:10:47.147Z,98928.86
2019-05-06T12:15:52.542Z,98912.09
2019-05-06T12:21:08.167Z,98915.64
2019-05-06T12:26:05.060Z,98915.87
2019-05-06T12:31:12.507Z,98905.14
2019-05-06T12:36:26.695Z,98902.03
2019-05-06T12:41:33.560Z,98903.98
2019-05-06T12:47:03.331Z,98908.05
2019-05-06T12:52:09.282Z,98912.45
2019-05-06T12:57:14.506Z,98912.87
2019-05-06T13:02:23.557Z,98908.52
2019-05-06T13:07:35.066Z,98916.95
2019-05-06T13:12:42.592Z,98918.28
2019-05-06T13:17:49.759Z,98918.80
2019-05-06T13:23:08.116Z,98915.53
2019-05-06T13:28:12.762Z,98903.19
2019-05-06T13:33:39.685Z,98911.59
2019-05-06T13:38:45.125Z,98915.05
2019-05-06T13:44:08.501Z,98913.08
2019-05-06T13:49:31.576Z,98926.59
2019-05-06T13:54:38.764Z,98916.45
2019-05-06T13:59:44.470Z,98915.12
2019-05-06T14:04:52.508Z,98912.03
2019-05-06T14:09:57.163Z,98903.89
2019-05-06T14:15:04.416Z,98907.39
2019-05-06T14:20:12.510Z,98900.65
2019-05-06T14:25:43.217Z,98903.61
2019-05-06T14:31:03.338Z,98906.77
2019-05-06T14:36:08.743Z,98904.31
2019-05-06T14:41:18.166Z,98923.30
2019-05-06T14:46:23.517Z,98921.91
2019-05-06T14:51:28.895Z,98924.54
2019-05-06T14:56:45.582Z,98932.63
2019-05-06T15:01:53.697Z,98928.91
2019-05-06T15:06:58.102Z,98924.84
2019-05-06T15:12:03.409Z,98922.05
2019-05-06T15:17:10.181Z,98922.00
2019-05-06T15:22:16.233Z,98915.05
2019-05-06T15:27:22.716Z,98912.52
2019-05-06T15:32:38.918Z,98909.67
2019-05-06T15:37:56.266Z,98905.86
2019-05-06T15:43:02.179Z,98907.20
2019-05-06T15:48:07.805Z,98911.73
2019-05-06T15:53:13.094Z,98912.09
2019-05-06T15:58:19.063Z,98911.02
2019-05-06T16:03:24.770Z,98904.08
2019-05-06T16:08:32.057Z,98903.12
2019-05-06T16:13:38.028Z,98905.61
2019-05-06T16:18:43.879Z,98907.33
2019-05-06T16:23:57.549Z,98904.53
2019-05-06T16:29:03.254Z,98891.87
2019-05-06T16:34:08.631Z,98895.16
2019-05-06T16:39:13.909Z,98893.93
2019-05-06T16:44:19.310Z,98895.67
2019-05-06T16:49:24.610Z,98883.65
2019-05-06T16:54:31.535Z,98887.77
2019-05-06T16:59:37.794Z,98869.78
2019-05-06T17:05:03.453Z,98862.30
2019-05-06T17:10:11.747Z,98863.09
2019-05-06T17:15:18.611Z,98871.92
2019-05-06T17:20:23.843Z,98870.86
2019-05-06T17:25:29.177Z,98868.45
2019-05-06T17:30:43.069Z,98883.59
2019-05-06T17:35:48.550Z,98884.62
2019-05-06T17:40:53.880Z,98884.52
2019-05-06T17:46:03.760Z,98881.85
2019-05-06T17:51:29.611Z,98882.97
2019-05-06T17:56:34.902Z,98878.38
2019-05-06T18:01:43.980Z,98885.45
2019-05-06T18:06:49.632Z,98885.34
2019-05-06T18:11:58.909Z,98881.34
2019-05-06T18:17:03.734Z,98888.70
2019-05-06T18:22:09.123Z,98891.13
2019-05-06T18:27:14.420Z,98898.49
2019-05-06T18:32:20.727Z,98901.50
2019-05-06T18:37:29.082Z,98911.33
2019-05-06T18:42:34.676Z,98908.37
2019-05-06T18:47:42.229Z,98920.78
2019-05-06T18:52:47.663Z,98941.63
2019-05-06T18:57:53.727Z,98946.11
2019-05-06T19:02:59.512Z,98938.59
2019-05-06T19:08:09.915Z,98946.16
2019-05-06T19:13:17.672Z,98944.52
2019-05-06T19:18:23.020Z,98943.08
2019-05-06T19:23:28.400Z,98945.72
2019-05-06T19:28:33.967Z,98952.37
2019-05-06T19:33:39.604Z,98948.41
2019-05-06T19:38:44.917Z,98959.38
2019-05-06T19:43:52.398Z,98958.57
2019-05-06T19:48:59.037Z,98962.36
2019-05-06T19:54:05.012Z,98961.70
2019-05-06T19:59:12.954Z,98965.02
2019-05-06T20:04:18.498Z,98960.66
2019-05-06T20:09:46.441Z,98961.03
2019-05-06T20:14:52.574Z,98964.80
2019-05-06T20:19:58.470Z,98964.87
2019-05-06T20:25:05.304Z,98964.56
2019-05-06T20:30:11.143Z,98960.94
2019-05-06T20:35:16.981Z,98958.66
2019-05-06T20:40:23.258Z,98961.34
2019-05-06T20:45:32.513Z,98955.88
2019-05-06T20:50:36.551Z,98954.77
2019-05-06T20:55:43.420Z,98949.61
2019-05-06T21:00:49.685Z,98945.41
2019-05-06T21:05:56.213Z,98955.57
2019-05-06T21:11:04.075Z,98958.88
2019-05-06T21:16:09.086Z,98954.95
2019-05-06T21:21:14.676Z,98945.73
2019-05-06T21:26:22.075Z,98945.22
2019-05-06T21:31:27.152Z,98945.09
2019-05-06T21:36:32.457Z,98945.00
2019-05-06T21:41:38.016Z,98943.04
2019-05-06T21:46:43.541Z,98934.64
2019-05-06T21:51:49.222Z,98937.20
2019-05-06T21:56:54.517Z,98924.20
2019-05-06T22:01:59.840Z,98922.70
2019-05-06T22:07:05.076Z,98920.98
2019-05-06T22:12:10.441Z,98923.05
2019-05-06T22:17:15.728Z,98915.16
2019-05-06T22:22:23.443Z,98915.92
2019-05-06T22:27:29.621Z,98912.08
2019-05-06T22:32:45.625Z,98912.45
2019-05-06T22:37:52.934Z,98911.11
2019-05-06T22:42:58.014Z,98910.45
2019-05-06T22:48:04.572Z,98907.28
2019-05-06T22:53:10.128Z,98903.21
2019-05-06T22:58:15.487Z,98903.99
2019-05-06T23:03:22.854Z,98903.63
2019-05-06T23:08:28.019Z,98898.95
2019-05-06T23:13:33.322Z,98898.89
2019-05-06T23:18:38.554Z,98903.07
2019-05-06T23:23:44.190Z,98900.42
2019-05-06T23:28:49.422Z,98898.88
2019-05-06T23:33:54.831Z,98897.76
2019-05-06T23:39:37.202Z,98892.41
2019-05-06T23:45:17.828Z,98884.45
2019-05-06T23:50:58.678Z,98882.26
2019-05-06T23:56:39.957Z,98885.87
